createdAt,value
2022-11-12T00:02:38.615Z,57.5
2022-11-12T00:04:22.052Z,57.5
2022-11-12T00:06:05.414Z,57.5
2022-11-12T00:07:48.801Z,57.5
2022-11-12T00:09:32.187Z,57.5
2022-11-12T00:11:15.576Z,57.5
2022-11-12T00:12:58.991Z,57.5
2022-11-12T00:14:42.380Z,57.5
2022-11-12T00:16:26.085Z,57.5
2022-11-12T00:18:09.485Z,57.5
2022-11-12T00:19:52.941Z,57.5
2022-11-12T00:21:36.363Z,57.5
2022-11-12T00:23:19.673Z,57.5
2022-11-12T00:25:03.069Z,57.5
2022-11-12T00:26:46.462Z,57.5
2022-11-12T00:28:29.859Z,57.5
2022-11-12T00:30:13.616Z,57.5
2022-11-12T00:31:56.948Z,57.5
2022-11-12T00:33:40.357Z,57.5
2022-11-12T00:35:23.876Z,57.5
2022-11-12T00:37:07.154Z,57.5
2022-11-12T00:38:50.547Z,57.4
2022-11-12T00:40:33.926Z,57.5
2022-11-12T00:42:17.339Z,57.4
2022-11-12T00:45:43.795Z,57.4
2022-11-12T00:47:27.243Z,57.4
2022-11-12T00:49:10.677Z,57.4
2022-11-12T00:50:53.994Z,57.4
2022-11-12T00:52:37.389Z,57.4
2022-11-12T00:54:20.810Z,57.4
2022-11-12T00:56:04.172Z,57.4
2022-11-12T00:57:47.636Z,57.4
2022-11-12T01:01:14.060Z,57.4
2022-11-12T01:02:57.439Z,57.4
2022-11-12T01:04:40.853Z,57.4
2022-11-12T01:06:25.258Z,57.4
2022-11-12T01:08:07.671Z,57.4
2022-11-12T01:09:51.036Z,57.4
2022-11-12T01:11:34.433Z,57.4
2022-11-12T01:13:17.824Z,57.3
2022-11-12T01:16:44.299Z,57.3
2022-11-12T01:18:27.706Z,57.3
2022-11-12T01:20:11.104Z,57.3
2022-11-12T01:21:54.486Z,57.3
2022-11-12T01:23:37.873Z,57.3
2022-11-12T01:25:21.296Z,57.3
2022-11-12T01:27:04.670Z,57.3
2022-11-12T01:32:14.045Z,57.2
2022-11-12T01:33:57.368Z,57.2
2022-11-12T01:35:40.699Z,57.2
2022-11-12T01:37:24.131Z,57.2
2022-11-12T01:39:07.499Z,57.2
2022-11-12T01:40:50.905Z,57.2
2022-11-12T01:42:34.328Z,57.2
2022-11-12T01:44:17.774Z,57.2
2022-11-12T01:46:01.390Z,57.2
2022-11-12T01:47:44.856Z,57.2
2022-11-12T01:49:28.295Z,57.2
2022-11-12T01:51:11.577Z,57.2
2022-11-12T01:52:54.966Z,57.1
2022-11-12T01:54:38.379Z,57.1
2022-11-12T01:56:21.763Z,57.1
2022-11-12T01:58:05.177Z,57.1
2022-11-12T02:01:31.657Z,57.1
2022-11-12T02:03:15.122Z,57.1
2022-11-12T02:04:58.462Z,57.1
2022-11-12T02:06:41.855Z,57.1
2022-11-12T02:08:25.230Z,57.1
2022-11-12T02:10:08.635Z,57.1
2022-11-12T02:11:52.080Z,57
2022-11-12T02:13:35.414Z,57
2022-11-12T02:17:01.906Z,57
2022-11-12T02:18:45.297Z,57
2022-11-12T02:20:28.680Z,57
2022-11-12T02:22:12.066Z,57
2022-11-12T02:23:55.477Z,57
2022-11-12T02:25:38.863Z,57
2022-11-12T02:27:22.297Z,57
2022-11-12T02:29:05.660Z,57
2022-11-12T02:32:32.141Z,57
2022-11-12T02:34:15.541Z,57
2022-11-12T02:35:58.939Z,57
2022-11-12T02:37:42.320Z,57
2022-11-12T02:39:25.709Z,57
2022-11-12T02:41:09.171Z,57
2022-11-12T02:42:52.557Z,56.9
2022-11-12T02:44:35.899Z,56.9
2022-11-12T02:48:02.379Z,56.9
2022-11-12T02:49:45.770Z,56.9
2022-11-12T02:51:29.159Z,56.9
2022-11-12T02:53:12.625Z,56.9
2022-11-12T02:54:55.952Z,56.9
2022-11-12T02:56:39.357Z,56.9
2022-11-12T02:58:22.764Z,56.9
2022-11-12T03:00:06.146Z,56.9
2022-11-12T03:03:32.621Z,56.9
2022-11-12T03:05:16.013Z,56.9
2022-11-12T03:06:59.421Z,56.9
2022-11-12T03:08:42.799Z,56.9
2022-11-12T03:10:26.210Z,56.9
2022-11-12T03:12:09.595Z,56.8
2022-11-12T03:13:53.053Z,56.8
2022-11-12T03:15:36.413Z,56.8
2022-11-12T03:19:02.911Z,56.8
2022-11-12T03:20:46.272Z,56.8
2022-11-12T03:22:29.715Z,56.8
2022-11-12T03:24:13.119Z,56.8
2022-11-12T03:25:56.445Z,56.8
2022-11-12T03:27:39.849Z,56.8
2022-11-12T03:29:23.242Z,56.8
2022-11-12T03:31:06.638Z,56.8
2022-11-12T03:34:33.183Z,56.7
2022-11-12T03:36:16.509Z,56.8
2022-11-12T03:37:59.901Z,56.8
2022-11-12T03:39:43.315Z,56.7
2022-11-12T03:41:26.693Z,56.7
2022-11-12T03:43:10.194Z,56.7
2022-11-12T03:44:53.480Z,56.7
2022-11-12T03:46:36.888Z,56.7
2022-11-12T03:50:03.350Z,56.7
2022-11-12T03:51:46.748Z,56.7
2022-11-12T03:53:30.148Z,56.7
2022-11-12T03:55:13.547Z,56.7
2022-11-12T03:56:57.003Z,56.7
2022-11-12T03:58:40.352Z,56.6
2022-11-12T04:00:23.774Z,56.6
2022-11-12T04:02:07.139Z,56.6
2022-11-12T04:05:33.610Z,56.6
2022-11-12T04:07:17.024Z,56.6
2022-11-12T04:09:00.405Z,56.6
2022-11-12T04:10:43.853Z,56.6
2022-11-12T04:12:27.188Z,56.6
2022-11-12T04:14:10.607Z,56.6
2022-11-12T04:15:54.067Z,56.6
2022-11-12T04:17:37.381Z,56.6
2022-11-12T04:22:46.624Z,56.6
2022-11-12T04:24:30.017Z,56.6
2022-11-12T04:26:13.424Z,56.5
2022-11-12T04:27:56.814Z,56.5
2022-11-12T04:29:40.213Z,56.5
2022-11-12T04:31:23.611Z,56.5
2022-11-12T04:33:07.007Z,56.5
2022-11-12T04:34:50.400Z,56.5
2022-11-12T04:36:34.093Z,56.5
2022-11-12T04:38:17.520Z,56.5
2022-11-12T04:40:00.900Z,56.5
2022-11-12T04:41:44.289Z,56.5
2022-11-12T04:43:27.687Z,56.5
2022-11-12T04:45:11.074Z,56.5
2022-11-12T04:46:54.470Z,56.5
2022-11-12T04:48:37.877Z,56.5
2022-11-12T04:52:04.357Z,56.5
2022-11-12T04:53:47.732Z,56.5
2022-11-12T04:55:31.134Z,56.5
2022-11-12T04:57:14.530Z,56.5
2022-11-12T04:58:57.966Z,56.5
2022-11-12T05:00:41.331Z,56.5
2022-11-12T05:02:24.727Z,56.5
2022-11-12T05:04:08.146Z,56.5
2022-11-12T05:07:34.596Z,56.5
2022-11-12T05:09:18.046Z,56.5
2022-11-12T05:11:01.381Z,56.5
2022-11-12T05:12:44.853Z,56.5
2022-11-12T05:14:28.180Z,56.5
2022-11-12T05:16:11.582Z,56.5
2022-11-12T05:17:54.972Z,56.4
2022-11-12T05:19:38.361Z,56.4
2022-11-12T05:23:04.851Z,56.4
2022-11-12T05:24:48.237Z,56.4
2022-11-12T05:26:31.638Z,56.4
2022-11-12T05:28:15.065Z,56.4
2022-11-12T05:29:58.428Z,56.4
2022-11-12T05:31:41.826Z,56.4
2022-11-12T05:33:25.219Z,56.4
2022-11-12T05:35:08.643Z,56.4
2022-11-12T05:38:35.098Z,56.4
2022-11-12T05:40:18.540Z,56.4
2022-11-12T05:42:01.879Z,56.4
2022-11-12T05:43:45.345Z,56.4
2022-11-12T05:45:28.666Z,56.4
2022-11-12T05:47:12.084Z,56.4
2022-11-12T05:48:55.465Z,56.4
2022-11-12T05:50:38.854Z,56.4
2022-11-12T05:54:05.340Z,56.4
2022-11-12T05:55:48.737Z,56.4
2022-11-12T05:57:32.125Z,56.4
2022-11-12T05:59:15.535Z,56.4
2022-11-12T06:00:58.915Z,56.4
2022-11-12T06:02:42.343Z,56.4
2022-11-12T06:04:25.730Z,56.4
2022-11-12T06:06:09.112Z,56.4
2022-11-12T06:09:35.598Z,56.4
2022-11-12T06:11:18.976Z,56.4
2022-11-12T06:13:02.369Z,56.4
2022-11-12T06:14:45.772Z,56.4
2022-11-12T06:16:29.173Z,56.4
2022-11-12T06:18:12.565Z,56.4
2022-11-12T06:19:56.018Z,56.4
2022-11-12T06:21:39.381Z,56.4
2022-11-12T06:25:05.841Z,56.4
2022-11-12T06:26:49.216Z,56.4
2022-11-12T06:28:32.626Z,56.4
2022-11-12T06:30:16.009Z,56.4
2022-11-12T06:31:59.419Z,56.4
2022-11-12T06:33:42.827Z,56.4
2022-11-12T06:35:26.211Z,56.4
2022-11-12T06:40:35.503Z,56.4
2022-11-12T06:42:18.844Z,56.4
2022-11-12T06:44:02.228Z,56.4
2022-11-12T06:45:45.627Z,56.4
2022-11-12T06:47:29.025Z,56.4
2022-11-12T06:49:12.428Z,56.4
2022-11-12T06:50:55.828Z,56.4
2022-11-12T06:52:39.223Z,56.4
2022-11-12T06:54:22.923Z,56.4
2022-11-12T06:56:06.340Z,56.4
2022-11-12T06:57:49.720Z,56.4
2022-11-12T06:59:33.117Z,56.4
2022-11-12T07:01:16.512Z,56.4
2022-11-12T07:02:59.894Z,56.4
2022-11-12T07:04:43.291Z,56.4
2022-11-12T07:06:26.708Z,56.4
2022-11-12T07:09:53.160Z,56.4
2022-11-12T07:11:36.562Z,56.4
2022-11-12T07:13:19.961Z,56.4
2022-11-12T07:15:03.349Z,56.4
2022-11-12T07:16:46.766Z,56.4
2022-11-12T07:18:30.206Z,56.4
2022-11-12T07:20:13.541Z,56.3
2022-11-12T07:21:56.943Z,56.3
2022-11-12T07:25:23.411Z,54.2
2022-11-12T07:27:06.821Z,48
2022-11-12T07:28:50.200Z,45.6
2022-11-12T07:30:33.615Z,45.6
2022-11-12T07:32:16.995Z,46.4
2022-11-12T07:34:00.396Z,47.5
2022-11-12T07:35:43.821Z,47.8
2022-11-12T07:37:27.204Z,47.9
2022-11-12T07:42:36.428Z,48.6
2022-11-12T07:44:19.829Z,48.8
2022-11-12T07:46:03.236Z,49
2022-11-12T07:49:30.012Z,50.2
2022-11-12T07:51:13.461Z,50.5
2022-11-12T07:52:56.792Z,50.8
2022-11-12T07:54:40.191Z,50.7
2022-11-12T07:58:06.673Z,51
2022-11-12T07:59:50.099Z,50.9
2022-11-12T08:01:33.475Z,51.2
2022-11-12T08:03:16.856Z,51.6
2022-11-12T08:05:00.261Z,51.5
2022-11-12T08:06:43.644Z,51.6
2022-11-12T08:08:27.081Z,51.4
2022-11-12T08:10:10.458Z,51.4
2022-11-12T08:13:36.929Z,51.8
2022-11-12T08:15:20.339Z,51.7
2022-11-12T08:17:03.727Z,51.7
2022-11-12T08:18:47.215Z,51.8
2022-11-12T08:20:30.520Z,51.8
2022-11-12T08:22:13.900Z,51.9
2022-11-12T08:23:57.350Z,51.9
2022-11-12T08:25:40.692Z,51.9
2022-11-12T08:29:07.176Z,52.1
2022-11-12T08:30:50.565Z,52.2
2022-11-12T08:34:17.468Z,52.2
2022-11-12T08:36:00.778Z,52.3
2022-11-12T08:37:44.145Z,52.3
2022-11-12T08:39:27.548Z,52.3
2022-11-12T08:44:36.785Z,52.4
2022-11-12T08:46:20.176Z,52.4
2022-11-12T08:48:03.578Z,52.4
2022-11-12T08:49:46.978Z,52.4
2022-11-12T08:51:30.423Z,52.4
2022-11-12T08:53:13.799Z,52.5
2022-11-12T08:54:57.157Z,52.5
2022-11-12T09:00:06.418Z,52.6
2022-11-12T09:01:49.796Z,52.6
2022-11-12T09:03:33.227Z,52.6
2022-11-12T09:05:16.590Z,52.6
2022-11-12T09:06:59.991Z,52.6
2022-11-12T09:08:43.422Z,52.5
2022-11-12T09:10:26.779Z,52.5
2022-11-12T09:12:10.173Z,52.5
2022-11-12T09:15:36.663Z,52.5
2022-11-12T09:17:20.115Z,52.5
2022-11-12T09:19:03.448Z,52.5
2022-11-12T09:20:46.833Z,52.5
2022-11-12T09:22:30.229Z,52.5
2022-11-12T09:24:13.677Z,52.5
2022-11-12T09:25:57.022Z,52.5
2022-11-12T09:27:40.431Z,52.5
2022-11-12T09:31:06.902Z,52.5
2022-11-12T09:32:50.284Z,52.5
2022-11-12T09:34:33.688Z,52.5
2022-11-12T09:36:17.093Z,52.5
2022-11-12T09:38:00.484Z,52.5
2022-11-12T09:39:43.871Z,52.5
2022-11-12T09:41:27.266Z,52.5
2022-11-12T09:43:10.680Z,52.5
2022-11-12T09:46:37.130Z,52.5
2022-11-12T09:48:20.550Z,52.5
2022-11-12T09:50:03.930Z,52.5
2022-11-12T09:51:47.316Z,52.5
2022-11-12T09:53:30.734Z,52.5
2022-11-12T09:55:14.162Z,52.5
2022-11-12T09:56:57.520Z,52.5
2022-11-12T09:58:40.907Z,52.5
2022-11-12T10:02:07.387Z,52.5
2022-11-12T10:03:50.770Z,52.5
2022-11-12T10:05:34.176Z,52.5
2022-11-12T10:07:17.610Z,52.5
2022-11-12T10:09:00.968Z,52.6
2022-11-12T10:10:44.428Z,52.6
2022-11-12T10:12:27.755Z,52.6
2022-11-12T10:14:11.151Z,52.6
2022-11-12T10:15:54.869Z,52.6
2022-11-12T10:17:38.255Z,52.6
2022-11-12T10:19:21.659Z,52.6
2022-11-12T10:21:05.063Z,52.6
2022-11-12T10:22:48.444Z,52.6
2022-11-12T10:24:31.862Z,52.6
2022-11-12T10:26:15.229Z,52.6
2022-11-12T10:27:58.634Z,52.6
2022-11-12T10:31:25.105Z,52.6
2022-11-12T10:33:08.493Z,52.6
2022-11-12T10:34:51.895Z,52.6
2022-11-12T10:36:35.301Z,52.6
2022-11-12T10:38:18.696Z,52.6
2022-11-12T10:40:02.081Z,52.6
2022-11-12T10:41:45.467Z,52.6
2022-11-12T10:46:54.730Z,52.6
2022-11-12T10:48:38.118Z,52.7
2022-11-12T10:50:21.514Z,52.7
2022-11-12T10:52:04.938Z,52.7
2022-11-12T10:53:48.304Z,52.6
2022-11-12T10:55:31.704Z,52.7
2022-11-12T10:57:15.096Z,52.6
2022-11-12T11:02:24.336Z,52.7
2022-11-12T11:04:07.735Z,52.6
2022-11-12T11:05:51.131Z,52.3
2022-11-12T11:07:34.523Z,52.4
2022-11-12T11:09:17.954Z,52.3
2022-11-12T11:11:01.318Z,52.3
2022-11-12T11:12:44.757Z,52.3
2022-11-12T11:17:53.960Z,52.5
2022-11-12T11:19:37.357Z,52.7
2022-11-12T11:21:20.750Z,52.7
2022-11-12T11:23:04.153Z,52.9
2022-11-12T11:24:47.543Z,53
2022-11-12T11:26:30.928Z,53.1
2022-11-12T11:28:14.334Z,53.3
2022-11-12T11:29:57.725Z,53.2
2022-11-12T11:31:41.446Z,53.2
2022-11-12T11:33:24.827Z,53.2
2022-11-12T11:35:08.212Z,53.3
2022-11-12T11:36:51.624Z,53.4
2022-11-12T11:38:35.062Z,53.4
2022-11-12T11:40:18.423Z,53.3
2022-11-12T11:42:01.799Z,53.5
2022-11-12T11:43:45.200Z,53.5
2022-11-12T11:48:54.435Z,53.5
2022-11-12T11:50:37.834Z,53.4
2022-11-12T11:52:21.239Z,53.5
2022-11-12T11:54:04.620Z,53.6
2022-11-12T11:55:48.029Z,53.8
2022-11-12T11:57:31.432Z,53.6
2022-11-12T11:59:14.805Z,53.6
2022-11-12T12:00:58.252Z,53.6
2022-11-12T12:04:24.689Z,53.6
2022-11-12T12:06:08.099Z,53.5
2022-11-12T12:07:51.502Z,53.4
2022-11-12T12:09:34.872Z,53.4
2022-11-12T12:11:18.274Z,53.5
2022-11-12T12:13:01.687Z,53.4
2022-11-12T12:14:45.079Z,53.4
2022-11-12T12:16:28.458Z,53.5
2022-11-12T12:19:54.959Z,53.5
2022-11-12T12:21:38.360Z,53.5
2022-11-12T12:23:21.728Z,53.5
2022-11-12T12:25:05.117Z,53.5
2022-11-12T12:26:48.523Z,53.5
2022-11-12T12:28:31.967Z,53.5
2022-11-12T12:30:15.328Z,53.6
2022-11-12T12:31:58.727Z,53.6
2022-11-12T12:33:42.109Z,53.7
2022-11-12T12:35:25.802Z,53.8
2022-11-12T12:37:09.209Z,54
2022-11-12T12:38:52.598Z,54.3
2022-11-12T12:40:36.027Z,54.5
2022-11-12T12:42:19.393Z,54.3
2022-11-12T12:44:02.778Z,54.2
2022-11-12T12:45:46.255Z,54.2
2022-11-12T12:47:29.585Z,54.3
2022-11-12T12:50:56.056Z,54.4
2022-11-12T12:52:39.453Z,54.4
2022-11-12T12:54:22.857Z,54.4
2022-11-12T12:56:06.241Z,54.2
2022-11-12T12:57:49.674Z,54.5
2022-11-12T12:59:33.060Z,54.4
2022-11-12T13:01:16.424Z,54.3
2022-11-12T13:06:25.667Z,54.2
2022-11-12T13:08:09.065Z,54.2
2022-11-12T13:09:52.450Z,54.6
2022-11-12T13:11:35.863Z,54.7
2022-11-12T13:13:19.235Z,54.9
2022-11-12T13:15:02.652Z,54.9
2022-11-12T13:16:46.099Z,54.8
2022-11-12T13:18:29.449Z,54.6
2022-11-12T13:20:13.143Z,54.6
2022-11-12T13:21:56.544Z,54.5
2022-11-12T13:23:39.935Z,54.5
2022-11-12T13:25:23.348Z,54.4
2022-11-12T13:27:06.787Z,54.4
2022-11-12T13:28:50.112Z,54.4
2022-11-12T13:30:33.522Z,54.3
2022-11-12T13:32:16.922Z,54.5
2022-11-12T13:35:43.393Z,54.3
2022-11-12T13:37:26.799Z,54.3
2022-11-12T13:39:10.193Z,54.3
2022-11-12T13:40:53.585Z,54.3
2022-11-12T13:42:36.962Z,54.3
2022-11-12T13:44:20.465Z,54.3
2022-11-12T13:46:03.768Z,54.3
2022-11-12T13:51:13.005Z,54.6
2022-11-12T13:52:56.398Z,54.7
2022-11-12T13:54:39.806Z,54.4
2022-11-12T13:56:23.196Z,54.4
2022-11-12T13:58:06.594Z,54.8
2022-11-12T13:59:50.049Z,54.7
2022-11-12T14:01:33.400Z,54.6
2022-11-12T14:04:59.852Z,54.6
2022-11-12T14:06:43.260Z,54.7
2022-11-12T14:08:26.650Z,54.6
2022-11-12T14:10:10.088Z,54.7
2022-11-12T14:11:53.443Z,54.8
2022-11-12T14:13:36.844Z,54.9
2022-11-12T14:15:20.302Z,55
2022-11-12T14:17:03.668Z,54.8
2022-11-12T14:18:47.332Z,54.7
2022-11-12T14:20:30.764Z,54.7
2022-11-12T14:22:14.155Z,54.9
2022-11-12T14:23:57.679Z,54.8
2022-11-12T14:25:40.924Z,54.8
2022-11-12T14:27:24.307Z,55
2022-11-12T14:29:07.712Z,54.9
2022-11-12T14:34:16.956Z,54.9
2022-11-12T14:36:00.344Z,54.8
2022-11-12T14:37:43.744Z,54.9
2022-11-12T14:39:27.146Z,54.9
2022-11-12T14:41:10.547Z,54.9
2022-11-12T14:42:53.998Z,55
2022-11-12T14:44:37.341Z,55
2022-11-12T14:46:20.808Z,55.1
2022-11-12T14:48:04.421Z,55.3
2022-11-12T14:49:47.831Z,55.2
2022-11-12T14:51:31.224Z,55.2
2022-11-12T14:53:14.628Z,55.2
2022-11-12T14:54:58.089Z,55.2
2022-11-12T14:56:41.482Z,55.2
2022-11-12T14:58:24.808Z,55.1
2022-11-12T15:00:08.193Z,55.2
2022-11-12T15:01:51.925Z,55.1
2022-11-12T15:03:35.319Z,55.2
2022-11-12T15:05:18.785Z,55.2
2022-11-12T15:07:02.160Z,55.2
2022-11-12T15:08:45.571Z,55.2
2022-11-12T15:10:28.892Z,55.3
2022-11-12T15:12:12.331Z,55.3
2022-11-12T15:13:55.674Z,55.3
2022-11-12T15:19:04.908Z,55.6
2022-11-12T15:20:48.315Z,55.7
2022-11-12T15:22:31.705Z,55.8
2022-11-12T15:24:15.122Z,56.1
2022-11-12T15:25:58.506Z,56.1
2022-11-12T15:27:41.914Z,56.1
2022-11-12T15:29:25.323Z,56.2
2022-11-12T15:31:08.708Z,56.3
2022-11-12T15:32:52.387Z,56.3
2022-11-12T15:34:35.810Z,56.4
2022-11-12T15:36:19.190Z,56.5
2022-11-12T15:38:02.577Z,56.4
2022-11-12T15:39:46.006Z,56.8
2022-11-12T15:41:29.379Z,57.1
2022-11-12T15:44:56.214Z,57.1
2022-11-12T15:48:22.678Z,57.4
2022-11-12T15:50:06.036Z,57.5
2022-11-12T15:51:49.450Z,57.4
2022-11-12T15:53:32.832Z,57.4
2022-11-12T15:55:16.234Z,57.3
2022-11-12T15:56:59.654Z,57.3
2022-11-12T15:58:43.093Z,57.1
2022-11-12T16:00:26.415Z,57.1
2022-11-12T16:03:52.888Z,56.9
2022-11-12T16:05:36.287Z,56.8
2022-11-12T16:07:19.705Z,56.8
2022-11-12T16:09:03.081Z,56.8
2022-11-12T16:10:46.477Z,56.8
2022-11-12T16:12:29.871Z,56.7
2022-11-12T16:14:13.270Z,56.7
2022-11-12T16:15:56.680Z,56.7
2022-11-12T16:17:40.357Z,56.6
2022-11-12T16:19:23.777Z,56.5
2022-11-12T16:21:07.157Z,56.5
2022-11-12T16:22:50.559Z,56.5
2022-11-12T16:24:33.935Z,56.5
2022-11-12T16:26:17.337Z,56.4
2022-11-12T16:28:00.735Z,56.4
2022-11-12T16:29:44.159Z,56.4
2022-11-12T16:31:27.838Z,56.4
2022-11-12T16:33:11.238Z,56.5
2022-11-12T16:34:54.620Z,56.7
2022-11-12T16:36:38.016Z,56.8
2022-11-12T16:38:21.417Z,56.5
2022-11-12T16:40:04.809Z,56.8
2022-11-12T16:41:48.209Z,56.6
2022-11-12T16:43:31.746Z,56.3
2022-11-12T16:46:58.071Z,56.3
2022-11-12T16:48:41.466Z,56.5
2022-11-12T16:50:24.874Z,56.8
2022-11-12T16:52:08.304Z,56.6
2022-11-12T16:53:51.656Z,56.6
2022-11-12T16:55:35.080Z,56.5
2022-11-12T16:57:18.454Z,56.5
2022-11-12T16:59:01.858Z,56.6
2022-11-12T17:00:45.558Z,56.4
2022-11-12T17:02:28.960Z,56.3
2022-11-12T17:04:12.361Z,56.3
2022-11-12T17:05:55.742Z,56.3
2022-11-12T17:07:39.138Z,56.1
2022-11-12T17:09:22.553Z,55.8
2022-11-12T17:11:05.962Z,55.5
2022-11-12T17:12:49.385Z,55.2
2022-11-12T17:16:15.841Z,54.9
2022-11-12T17:17:59.250Z,54.7
2022-11-12T17:19:42.634Z,54.6
2022-11-12T17:21:25.983Z,54.4
2022-11-12T17:23:09.389Z,54.3
2022-11-12T17:24:52.790Z,54.2
2022-11-12T17:26:36.256Z,54.1
2022-11-12T17:28:19.578Z,54
2022-11-12T17:30:03.289Z,54
2022-11-12T17:31:46.669Z,54
2022-11-12T17:33:30.078Z,54.3
2022-11-12T17:35:13.481Z,54.8
2022-11-12T17:36:56.869Z,55.7
2022-11-12T17:38:40.258Z,55.9
2022-11-12T17:40:23.652Z,55.8
2022-11-12T17:42:07.101Z,56
2022-11-12T17:45:33.526Z,56
2022-11-12T17:47:16.966Z,56
2022-11-12T17:49:00.323Z,56.1
2022-11-12T17:50:43.723Z,56.1
2022-11-12T17:52:27.106Z,56.3
2022-11-12T17:54:10.495Z,56.2
2022-11-12T17:55:53.910Z,56.3
2022-11-12T18:01:03.139Z,56.1
2022-11-12T18:02:46.541Z,56
2022-11-12T18:04:29.949Z,55.9
2022-11-12T18:06:13.326Z,55.9
2022-11-12T18:07:56.737Z,55.8
2022-11-12T18:09:40.118Z,55.8
2022-11-12T18:11:23.518Z,55.9
2022-11-12T18:13:06.916Z,55.8
2022-11-12T18:14:50.609Z,55.8
2022-11-12T18:16:34.035Z,55.8
2022-11-12T18:18:17.417Z,55.8
2022-11-12T18:20:00.803Z,55.8
2022-11-12T18:21:44.208Z,55.8
2022-11-12T18:23:27.591Z,55.8
2022-11-12T18:25:10.997Z,55.9
2022-11-12T18:26:54.403Z,55.9
2022-11-12T18:30:20.925Z,55.8
2022-11-12T18:32:04.378Z,55.8
2022-11-12T18:33:47.697Z,55.8
2022-11-12T18:35:31.077Z,55.8
2022-11-12T18:37:14.447Z,55.8
2022-11-12T18:38:57.849Z,56
2022-11-12T18:40:41.247Z,56
2022-11-12T18:45:50.492Z,55.7
2022-11-12T18:47:33.882Z,55.7
2022-11-12T18:49:17.271Z,55.7
2022-11-12T18:51:00.743Z,56
2022-11-12T18:52:44.145Z,55.9
2022-11-12T18:54:27.473Z,55.9
2022-11-12T18:56:10.857Z,55.8
2022-11-12T19:01:20.101Z,55.8
2022-11-12T19:03:03.504Z,55.8
2022-11-12T19:04:46.886Z,55.8
2022-11-12T19:06:30.301Z,55.9
2022-11-12T19:08:13.689Z,55.9
2022-11-12T19:09:57.078Z,55.8
2022-11-12T19:11:40.480Z,55.9
2022-11-12T19:13:23.898Z,55.9
2022-11-12T19:15:07.585Z,55.8
2022-11-12T19:16:51.109Z,55.9
2022-11-12T19:18:34.377Z,55.7
2022-11-12T19:20:17.792Z,55.7
2022-11-12T19:22:01.166Z,55.7
2022-11-12T19:23:44.562Z,55.6
2022-11-12T19:25:27.957Z,55.7
2022-11-12T19:27:11.349Z,55.9
2022-11-12T19:30:37.817Z,56.2
2022-11-12T19:32:21.210Z,56.4
2022-11-12T19:34:04.617Z,56.3
2022-11-12T19:35:48.012Z,56.1
2022-11-12T19:37:31.416Z,56
2022-11-12T19:39:14.792Z,56
2022-11-12T19:40:58.232Z,56
2022-11-12T19:42:41.596Z,56
2022-11-12T19:44:25.364Z,56
2022-11-12T19:46:08.716Z,55.9
2022-11-12T19:47:52.097Z,55.9
2022-11-12T19:49:35.489Z,56
2022-11-12T19:51:18.882Z,56.2
2022-11-12T19:53:02.288Z,56.2
2022-11-12T19:54:45.679Z,56.1
2022-11-12T19:56:29.089Z,56
2022-11-12T19:59:55.543Z,56.3
2022-11-12T20:01:39.089Z,56.1
2022-11-12T20:03:22.359Z,56
2022-11-12T20:05:05.761Z,56
2022-11-12T20:06:49.252Z,56
2022-11-12T20:08:32.633Z,56
2022-11-12T20:10:15.925Z,56
2022-11-12T20:11:59.372Z,56
2022-11-12T20:13:43.090Z,55.9
2022-11-12T20:15:26.470Z,55.9
2022-11-12T20:17:09.865Z,55.9
2022-11-12T20:18:53.319Z,55.8
2022-11-12T20:20:36.605Z,55.8
2022-11-12T20:22:20.096Z,55.8
2022-11-12T20:24:03.457Z,55.8
2022-11-12T20:25:46.897Z,55.8
2022-11-12T20:29:13.351Z,55.7
2022-11-12T20:30:56.750Z,55.8
2022-11-12T20:32:40.061Z,55.7
2022-11-12T20:34:23.448Z,55.8
2022-11-12T20:36:06.936Z,55.8
2022-11-12T20:37:50.257Z,55.8
2022-11-12T20:39:33.629Z,55.7
2022-11-12T20:41:17.143Z,55.7
2022-11-12T20:44:43.517Z,55.7
2022-11-12T20:46:26.915Z,55.9
2022-11-12T20:48:10.308Z,56.1
2022-11-12T20:49:53.702Z,56.3
2022-11-12T20:51:37.090Z,56.5
2022-11-12T20:53:20.562Z,56.9
2022-11-12T20:55:03.899Z,56.9
2022-11-12T20:56:47.365Z,56.6
2022-11-12T20:58:30.985Z,56.6
2022-11-12T21:00:14.456Z,56.6
2022-11-12T21:01:57.787Z,56.5
2022-11-12T21:03:41.217Z,56.4
2022-11-12T21:05:24.585Z,56.2
2022-11-12T21:07:07.976Z,56.1
2022-11-12T21:08:51.490Z,56
2022-11-12T21:10:34.757Z,56
2022-11-12T21:14:01.357Z,55.9
2022-11-12T21:15:44.645Z,55.9
2022-11-12T21:17:28.151Z,55.9
2022-11-12T21:19:11.452Z,55.9
2022-11-12T21:20:54.886Z,55.9
2022-11-12T21:22:38.219Z,55.9
2022-11-12T21:24:21.762Z,55.9
2022-11-12T21:29:30.872Z,55.8
2022-11-12T21:31:14.243Z,55.8
2022-11-12T21:32:57.705Z,55.8
2022-11-12T21:34:41.096Z,55.8
2022-11-12T21:36:24.449Z,55.8
2022-11-12T21:38:07.891Z,55.8
2022-11-12T21:39:51.232Z,55.7
2022-11-12T21:43:17.710Z,55.7
2022-11-12T21:45:01.099Z,55.8
2022-11-12T21:46:44.506Z,55.8
2022-11-12T21:48:27.890Z,55.7
2022-11-12T21:50:11.289Z,55.7
2022-11-12T21:51:54.740Z,55.7
2022-11-12T21:53:38.076Z,55.7
2022-11-12T21:55:21.539Z,55.7
2022-11-12T21:57:05.180Z,55.7
2022-11-12T21:58:48.609Z,55.6
2022-11-12T22:00:31.969Z,55.6
2022-11-12T22:02:15.365Z,55.7
2022-11-12T22:03:58.761Z,55.6
2022-11-12T22:05:42.154Z,55.6
2022-11-12T22:07:25.732Z,55.6
2022-11-12T22:09:09.063Z,55.6
2022-11-12T22:12:35.421Z,55.6
2022-11-12T22:14:18.882Z,55.6
2022-11-12T22:16:02.241Z,55.7
2022-11-12T22:17:45.729Z,55.6
2022-11-12T22:19:29.126Z,55.5
2022-11-12T22:21:12.401Z,55.7
2022-11-12T22:22:55.797Z,55.9
2022-11-12T22:28:05.072Z,55.9
2022-11-12T22:29:48.449Z,55.8
2022-11-12T22:31:31.839Z,55.6
2022-11-12T22:33:15.235Z,55.6
2022-11-12T22:34:58.637Z,55.6
2022-11-12T22:36:42.013Z,55.6
2022-11-12T22:38:25.408Z,55.6
2022-11-12T22:40:08.824Z,55.6
2022-11-12T22:41:52.528Z,55.6
2022-11-12T22:43:35.918Z,55.6
2022-11-12T22:45:19.309Z,55.6
2022-11-12T22:47:02.764Z,55.6
2022-11-12T22:48:46.185Z,55.5
2022-11-12T22:50:29.502Z,55.5
2022-11-12T22:52:12.916Z,55.5
2022-11-12T22:59:05.602Z,55.5
2022-11-12T23:00:48.938Z,55.5
2022-11-12T23:02:32.338Z,55.5
2022-11-12T23:04:15.926Z,55.5
2022-11-12T23:05:59.238Z,55.5
2022-11-12T23:07:42.515Z,55.5
2022-11-12T23:11:09.004Z,55.5
2022-11-12T23:12:52.419Z,55.5
2022-11-12T23:14:35.845Z,55.5
2022-11-12T23:16:19.190Z,55.5
2022-11-12T23:18:02.590Z,55.5
2022-11-12T23:19:45.982Z,55.5
2022-11-12T23:21:29.368Z,55.5
2022-11-12T23:26:38.614Z,55.4
2022-11-12T23:28:22.005Z,55.4
2022-11-12T23:30:05.417Z,55.4
2022-11-12T23:31:48.794Z,55.4
2022-11-12T23:33:32.195Z,55.4
2022-11-12T23:35:15.603Z,55.4
2022-11-12T23:36:58.992Z,55.4
2022-11-12T23:40:25.455Z,55.4
2022-11-12T23:42:08.867Z,55.4
2022-11-12T23:43:52.342Z,55.4
2022-11-12T23:45:35.655Z,55.4
2022-11-12T23:47:19.050Z,55.4
2022-11-12T23:49:02.454Z,55.3
2022-11-12T23:50:45.835Z,55.3
2022-11-12T23:52:29.236Z,55.3
2022-11-12T23:54:12.942Z,55.3
2022-11-12T23:55:56.336Z,55.3
2022-11-12T23:57:39.739Z,55.3
2022-11-12T23:59:23.138Z,55.3
